createdAt,value
2018-07-03T00:00:04.874Z,16.40
2018-07-03T00:02:33.561Z,16.50
2018-07-03T00:05:02.217Z,16.50
2018-07-03T00:07:30.891Z,16.50
2018-07-03T00:09:59.548Z,16.50
2018-07-03T00:12:28.169Z,16.40
2018-07-03T00:14:56.996Z,16.40
2018-07-03T00:17:25.656Z,16.30
2018-07-03T00:19:54.308Z,16.20
2018-07-03T00:22:23.092Z,16.20
2018-07-03T00:24:51.735Z,16.10
2018-07-03T00:27:20.362Z,16.00
2018-07-03T00:29:48.971Z,16.00
2018-07-03T00:32:17.798Z,15.80
2018-07-03T00:34:46.395Z,15.80
2018-07-03T00:37:15.058Z,15.80
2018-07-03T00:39:43.702Z,15.70
2018-07-03T00:42:12.350Z,15.80
2018-07-03T00:44:40.965Z,15.80
2018-07-03T00:47:09.609Z,15.80
2018-07-03T00:49:38.302Z,15.80
2018-07-03T00:52:06.972Z,15.80
2018-07-03T00:54:35.585Z,15.80
2018-07-03T00:57:04.235Z,15.80
2018-07-03T00:59:32.855Z,15.80
2018-07-03T01:02:01.462Z,15.80
2018-07-03T01:04:30.128Z,15.80
2018-07-03T01:06:58.790Z,15.80
2018-07-03T01:09:27.389Z,15.80
2018-07-03T01:11:56.049Z,15.70
2018-07-03T01:14:24.653Z,15.70
2018-07-03T01:16:53.274Z,15.70
2018-07-03T01:19:21.950Z,15.60
2018-07-03T01:21:50.670Z,15.60
2018-07-03T01:24:19.326Z,15.50
2018-07-03T01:26:47.949Z,15.40
2018-07-03T01:29:16.555Z,15.10
2018-07-03T01:31:45.264Z,15.10
2018-07-03T01:34:14.300Z,15.00
2018-07-03T01:36:43.021Z,14.90
2018-07-03T01:39:11.668Z,15.00
2018-07-03T01:41:40.288Z,15.00
2018-07-03T01:44:08.933Z,15.00
2018-07-03T01:46:37.683Z,15.10
2018-07-03T01:49:06.345Z,15.10
2018-07-03T01:51:34.955Z,15.00
2018-07-03T01:54:03.575Z,15.00
2018-07-03T01:56:32.188Z,15.00
2018-07-03T01:59:00.823Z,15.00
2018-07-03T02:01:29.461Z,15.00
2018-07-03T02:03:58.109Z,15.00
2018-07-03T02:06:26.767Z,15.00
2018-07-03T02:08:55.439Z,14.90
2018-07-03T02:11:25.170Z,14.90
2018-07-03T02:13:54.067Z,14.90
2018-07-03T02:16:22.682Z,14.90
2018-07-03T02:18:51.300Z,14.80
2018-07-03T02:21:19.941Z,14.70
2018-07-03T02:23:48.799Z,14.70
2018-07-03T02:26:17.478Z,14.70
2018-07-03T02:28:46.137Z,14.70
2018-07-03T02:31:14.763Z,14.70
2018-07-03T02:33:43.385Z,14.60
2018-07-03T02:36:12.009Z,14.60
2018-07-03T02:38:40.616Z,14.60
2018-07-03T02:41:09.260Z,14.50
2018-07-03T02:43:37.971Z,14.50
2018-07-03T02:46:06.927Z,14.40
2018-07-03T02:48:35.683Z,14.40
2018-07-03T02:51:04.308Z,14.40
2018-07-03T02:53:32.972Z,14.30
2018-07-03T02:56:01.598Z,14.30
2018-07-03T02:58:30.208Z,14.30
2018-07-03T03:00:58.841Z,14.30
2018-07-03T03:03:27.521Z,14.20
2018-07-03T03:05:56.113Z,14.20
2018-07-03T03:08:25.909Z,14.10
2018-07-03T03:10:54.676Z,14.10
2018-07-03T03:13:23.325Z,14.00
2018-07-03T03:15:51.982Z,14.00
2018-07-03T03:18:20.592Z,14.10
2018-07-03T03:20:49.218Z,14.00
2018-07-03T03:23:17.819Z,14.10
2018-07-03T03:25:46.476Z,14.00
2018-07-03T03:28:15.733Z,14.10
2018-07-03T03:30:44.914Z,14.00
2018-07-03T03:33:13.546Z,14.00
2018-07-03T03:35:42.163Z,13.90
2018-07-03T03:38:10.934Z,13.90
2018-07-03T03:40:39.523Z,13.80
2018-07-03T03:43:08.129Z,13.70
2018-07-03T03:45:36.761Z,13.70
2018-07-03T03:48:05.503Z,13.80
2018-07-03T03:50:34.101Z,13.80
2018-07-03T03:53:02.726Z,13.80
2018-07-03T03:55:31.369Z,13.80
2018-07-03T03:57:59.998Z,13.80
2018-07-03T04:00:28.578Z,13.80
2018-07-03T04:02:57.180Z,13.80
2018-07-03T04:05:25.815Z,13.90
2018-07-03T04:07:54.484Z,13.90
2018-07-03T04:10:23.157Z,13.90
2018-07-03T04:12:51.770Z,13.90
2018-07-03T04:15:20.434Z,13.90
2018-07-03T04:17:49.041Z,13.80
2018-07-03T04:20:17.735Z,13.80
2018-07-03T04:22:46.422Z,13.80
2018-07-03T04:25:15.094Z,13.80
2018-07-03T04:27:43.712Z,13.90
2018-07-03T04:30:12.327Z,13.90
2018-07-03T04:32:40.956Z,13.90
2018-07-03T04:35:09.590Z,13.90
2018-07-03T04:37:38.199Z,14.00
2018-07-03T04:40:06.963Z,14.00
2018-07-03T04:42:35.554Z,14.00
2018-07-03T04:45:04.303Z,14.00
2018-07-03T04:47:32.909Z,14.10
2018-07-03T04:50:01.511Z,14.10
2018-07-03T04:52:30.093Z,14.10
2018-07-03T04:54:58.745Z,14.20
2018-07-03T04:57:27.510Z,14.20
2018-07-03T04:59:56.146Z,14.20
2018-07-03T05:02:24.745Z,14.30
2018-07-03T05:04:53.360Z,14.30
2018-07-03T05:07:21.987Z,14.40
2018-07-03T05:09:50.607Z,14.40
2018-07-03T05:12:19.220Z,14.50
2018-07-03T05:14:47.833Z,14.60
2018-07-03T05:17:16.460Z,14.70
2018-07-03T05:19:45.076Z,14.70
2018-07-03T05:22:13.713Z,14.70
2018-07-03T05:24:42.384Z,14.80
2018-07-03T05:27:11.028Z,14.90
2018-07-03T05:29:39.671Z,14.90
2018-07-03T05:32:08.365Z,14.90
2018-07-03T05:34:37.041Z,15.00
2018-07-03T05:37:05.762Z,15.00
2018-07-03T05:39:34.413Z,15.10
2018-07-03T05:42:03.101Z,15.20
2018-07-03T05:44:31.760Z,15.40
2018-07-03T05:47:00.398Z,15.40
2018-07-03T05:49:28.991Z,15.50
2018-07-03T05:51:58.226Z,15.60
2018-07-03T05:54:26.918Z,15.70
2018-07-03T05:56:55.582Z,15.80
2018-07-03T05:59:24.244Z,15.80
2018-07-03T06:01:52.874Z,15.90
2018-07-03T06:04:21.497Z,15.90
2018-07-03T06:06:50.180Z,16.00
2018-07-03T06:09:18.883Z,16.00
2018-07-03T06:11:47.462Z,16.00
2018-07-03T06:14:16.085Z,16.10
2018-07-03T06:16:44.701Z,16.10
2018-07-03T06:19:13.318Z,16.10
2018-07-03T06:21:42.016Z,16.10
2018-07-03T06:24:10.653Z,16.20
2018-07-03T06:26:39.338Z,16.20
2018-07-03T06:29:08.020Z,16.30
2018-07-03T06:31:36.630Z,16.30
2018-07-03T06:34:05.302Z,16.50
2018-07-03T06:36:34.404Z,16.60
2018-07-03T06:39:03.516Z,16.60
2018-07-03T06:41:32.112Z,16.70
2018-07-03T06:44:00.749Z,16.70
2018-07-03T06:46:29.358Z,16.80
2018-07-03T06:48:57.963Z,16.90
2018-07-03T06:51:26.564Z,16.90
2018-07-03T06:53:55.411Z,17.00
2018-07-03T06:56:24.082Z,17.00
2018-07-03T06:58:52.725Z,17.10
2018-07-03T07:01:21.415Z,17.20
2018-07-03T07:03:50.013Z,17.30
2018-07-03T07:06:18.654Z,17.30
2018-07-03T07:08:47.391Z,17.40
2018-07-03T07:11:15.965Z,17.40
2018-07-03T07:13:44.712Z,17.50
2018-07-03T07:16:13.352Z,17.60
2018-07-03T07:18:42.036Z,17.70
2018-07-03T07:21:10.694Z,17.80
2018-07-03T07:23:39.301Z,18.00
2018-07-03T07:26:07.904Z,18.10
2018-07-03T07:28:36.565Z,18.20
2018-07-03T07:31:05.343Z,18.30
2018-07-03T07:33:33.935Z,18.40
2018-07-03T07:36:02.562Z,18.50
2018-07-03T07:38:31.468Z,18.50
2018-07-03T07:41:00.073Z,18.60
2018-07-03T07:43:28.680Z,18.80
2018-07-03T07:45:57.315Z,18.90
2018-07-03T07:48:26.028Z,19.00
2018-07-03T07:50:54.629Z,19.20
2018-07-03T07:53:23.229Z,19.30
2018-07-03T07:55:51.865Z,19.40
2018-07-03T07:58:20.543Z,19.50
2018-07-03T08:00:49.187Z,19.60
2018-07-03T08:03:17.798Z,19.70
2018-07-03T08:05:46.420Z,19.80
2018-07-03T08:08:15.041Z,20.00
2018-07-03T08:10:43.687Z,20.10
2018-07-03T08:13:12.371Z,20.20
2018-07-03T08:15:40.956Z,20.40
2018-07-03T08:18:09.577Z,20.60
2018-07-03T08:20:38.195Z,20.70
2018-07-03T08:23:06.832Z,20.80
2018-07-03T08:25:35.468Z,20.90
2018-07-03T08:28:04.079Z,21.10
2018-07-03T08:30:32.689Z,21.40
2018-07-03T08:33:01.305Z,21.50
2018-07-03T08:35:29.927Z,21.70
2018-07-03T08:37:58.494Z,21.90
2018-07-03T08:40:27.344Z,22.10
2018-07-03T08:42:56.012Z,22.30
2018-07-03T08:45:24.577Z,22.40
2018-07-03T08:47:53.202Z,22.50
2018-07-03T08:50:21.817Z,22.50
2018-07-03T08:52:50.430Z,22.60
2018-07-03T08:55:19.097Z,22.70
2018-07-03T08:57:47.718Z,22.90
2018-07-03T09:00:16.330Z,23.00
2018-07-03T09:02:44.912Z,23.30
2018-07-03T09:05:13.695Z,23.50
2018-07-03T09:07:42.326Z,23.70
2018-07-03T09:10:10.931Z,23.90
2018-07-03T09:12:39.711Z,24.20
2018-07-03T09:15:09.017Z,24.50
2018-07-03T09:17:37.632Z,24.60
2018-07-03T09:20:06.330Z,24.60
2018-07-03T09:22:34.984Z,24.50
2018-07-03T09:25:03.661Z,24.50
2018-07-03T09:27:32.301Z,24.50
2018-07-03T09:30:00.904Z,24.70
2018-07-03T09:32:29.599Z,24.70
2018-07-03T09:34:58.237Z,24.70
2018-07-03T09:37:26.865Z,25.00
2018-07-03T09:39:55.508Z,25.10
2018-07-03T09:42:24.201Z,24.90
2018-07-03T09:44:52.841Z,25.10
2018-07-03T09:47:21.485Z,25.20
2018-07-03T09:49:50.073Z,25.10
2018-07-03T09:52:18.718Z,25.30
2018-07-03T09:54:47.347Z,25.50
2018-07-03T09:57:15.926Z,25.90
2018-07-03T09:59:44.594Z,26.20
2018-07-03T10:02:13.193Z,26.20
2018-07-03T10:04:41.780Z,26.10
2018-07-03T10:07:10.381Z,26.10
2018-07-03T10:09:38.982Z,26.10
2018-07-03T10:12:07.602Z,26.40
2018-07-03T10:14:36.181Z,26.70
2018-07-03T10:17:04.989Z,26.90
2018-07-03T10:19:33.578Z,26.40
2018-07-03T10:22:02.150Z,26.30
2018-07-03T10:24:30.762Z,26.50
2018-07-03T10:26:59.441Z,27.00
2018-07-03T10:29:28.109Z,27.40
2018-07-03T10:31:56.737Z,27.70
2018-07-03T10:34:25.483Z,27.80
2018-07-03T10:36:54.140Z,28.30
2018-07-03T10:39:22.797Z,28.30
2018-07-03T10:41:51.406Z,28.00
2018-07-03T10:44:20.029Z,28.10
2018-07-03T10:46:48.628Z,28.30
2018-07-03T10:49:17.263Z,28.40
2018-07-03T10:51:45.882Z,28.60
2018-07-03T10:54:14.509Z,28.80
2018-07-03T10:56:43.109Z,29.30
2018-07-03T10:59:11.736Z,29.90
2018-07-03T11:01:40.403Z,30.40
2018-07-03T11:04:09.006Z,30.60
2018-07-03T11:06:37.651Z,30.60
2018-07-03T11:09:09.256Z,30.30
2018-07-03T11:11:37.884Z,29.60
2018-07-03T11:14:06.724Z,29.00
2018-07-03T11:16:35.354Z,29.20
2018-07-03T11:19:04.017Z,29.30
2018-07-03T11:21:32.737Z,29.50
2018-07-03T11:24:01.668Z,30.10
2018-07-03T11:26:30.300Z,29.70
2018-07-03T11:28:58.944Z,29.60
2018-07-03T11:31:27.593Z,29.60
2018-07-03T11:33:56.202Z,30.10
2018-07-03T11:36:24.890Z,29.70
2018-07-03T11:38:53.509Z,29.60
2018-07-03T11:41:22.614Z,30.20
2018-07-03T11:43:51.325Z,30.80
2018-07-03T11:46:19.974Z,31.30
2018-07-03T11:48:48.588Z,31.70
2018-07-03T11:51:17.204Z,32.00
2018-07-03T11:53:46.426Z,31.40
2018-07-03T11:56:15.033Z,31.20
2018-07-03T11:58:43.662Z,31.50
2018-07-03T12:01:12.267Z,31.90
2018-07-03T12:03:40.941Z,31.90
2018-07-03T12:06:09.551Z,31.50
2018-07-03T12:08:38.138Z,31.20
2018-07-03T12:11:07.648Z,31.50
2018-07-03T12:13:36.313Z,32.00
2018-07-03T12:16:05.088Z,31.90
2018-07-03T12:18:38.911Z,32.20
2018-07-03T12:21:07.692Z,32.60
2018-07-03T12:23:36.399Z,32.10
2018-07-03T12:26:05.102Z,31.30
2018-07-03T12:28:33.775Z,31.30
2018-07-03T12:31:02.437Z,31.80
2018-07-03T12:33:31.286Z,32.00
2018-07-03T12:35:59.920Z,31.80
2018-07-03T12:38:28.533Z,32.20
2018-07-03T12:40:57.160Z,32.60
2018-07-03T12:43:26.018Z,32.60
2018-07-03T12:45:54.614Z,32.70
2018-07-03T12:48:23.283Z,33.20
2018-07-03T12:50:51.952Z,33.20
2018-07-03T12:53:20.658Z,33.50
2018-07-03T12:55:49.286Z,33.60
2018-07-03T12:58:17.937Z,34.00
2018-07-03T13:00:46.606Z,33.90
2018-07-03T13:03:15.233Z,34.30
2018-07-03T13:05:43.843Z,34.70
2018-07-03T13:08:12.540Z,34.70
2018-07-03T13:10:41.116Z,33.80
2018-07-03T13:13:09.802Z,33.00
2018-07-03T13:15:38.461Z,33.40
2018-07-03T13:18:12.421Z,33.50
2018-07-03T13:20:41.362Z,33.90
2018-07-03T13:23:13.065Z,34.20
2018-07-03T13:25:41.711Z,34.20
2018-07-03T13:28:10.602Z,34.00
2018-07-03T13:30:39.309Z,34.40
2018-07-03T13:33:08.073Z,33.50
2018-07-03T13:35:36.792Z,33.10
2018-07-03T13:38:05.801Z,33.40
2018-07-03T13:40:34.543Z,33.40
2018-07-03T13:43:03.175Z,33.90
2018-07-03T13:45:32.177Z,34.10
2018-07-03T13:48:00.800Z,34.20
2018-07-03T13:50:29.401Z,34.40
2018-07-03T13:52:57.996Z,34.40
2018-07-03T13:55:27.512Z,34.60
2018-07-03T13:57:59.888Z,34.70
2018-07-03T14:00:28.521Z,34.90
2018-07-03T14:02:57.350Z,35.10
2018-07-03T14:05:25.957Z,35.40
2018-07-03T14:07:54.726Z,35.50
2018-07-03T14:10:23.470Z,35.30
2018-07-03T14:12:52.065Z,34.30
2018-07-03T14:15:20.674Z,33.70
2018-07-03T14:17:50.108Z,34.00
2018-07-03T14:20:18.726Z,34.40
2018-07-03T14:22:47.363Z,34.70
2018-07-03T14:25:16.023Z,35.10
2018-07-03T14:27:44.635Z,35.10
2018-07-03T14:30:13.314Z,35.30
2018-07-03T14:32:44.317Z,35.40
2018-07-03T14:35:14.566Z,34.90
2018-07-03T14:37:43.298Z,34.10
2018-07-03T14:40:16.743Z,33.60
2018-07-03T14:42:49.268Z,33.20
2018-07-03T14:45:21.495Z,32.80
2018-07-03T14:47:57.351Z,32.60
2018-07-03T14:50:27.004Z,32.80
2018-07-03T14:52:55.800Z,32.70
2018-07-03T14:55:24.512Z,32.80
2018-07-03T14:57:53.419Z,32.70
2018-07-03T15:00:23.161Z,32.90
2018-07-03T15:02:51.934Z,32.80
2018-07-03T15:05:20.814Z,32.70
2018-07-03T15:07:49.610Z,32.40
2018-07-03T15:10:18.506Z,32.30
2018-07-03T15:12:47.241Z,31.80
2018-07-03T15:15:15.900Z,31.40
2018-07-03T15:17:44.524Z,31.80
2018-07-03T15:20:13.251Z,32.30
2018-07-03T15:22:41.882Z,32.80
2018-07-03T15:25:10.597Z,33.10
2018-07-03T15:27:39.223Z,32.80
2018-07-03T15:30:07.836Z,33.10
2018-07-03T15:32:36.561Z,33.50
2018-07-03T15:35:05.197Z,33.20
2018-07-03T15:37:33.864Z,33.40
2018-07-03T15:40:02.507Z,33.70
2018-07-03T15:42:31.129Z,33.70
2018-07-03T15:45:07.693Z,33.20
2018-07-03T15:47:36.326Z,33.50
2018-07-03T15:50:06.069Z,33.70
2018-07-03T15:52:34.736Z,34.00
2018-07-03T15:55:03.365Z,34.20
2018-07-03T15:57:32.021Z,34.40
2018-07-03T16:00:00.647Z,34.50
2018-07-03T16:02:29.289Z,34.50
2018-07-03T16:05:11.292Z,34.60
2018-07-03T16:09:47.350Z,34.60
2018-07-03T16:12:16.029Z,34.80
2018-07-03T16:14:45.886Z,34.70
2018-07-03T16:17:14.539Z,34.60
2018-07-03T16:19:48.437Z,34.50
2018-07-03T16:22:17.056Z,34.40
2018-07-03T16:24:45.690Z,34.00
2018-07-03T16:27:14.329Z,33.90
2018-07-03T16:29:43.010Z,33.90
2018-07-03T16:32:11.628Z,33.80
2018-07-03T16:34:40.289Z,33.80
2018-07-03T16:37:08.895Z,33.80
2018-07-03T16:39:37.566Z,33.60
2018-07-03T16:42:06.230Z,33.60
2018-07-03T16:44:34.985Z,33.60
2018-07-03T16:47:04.181Z,33.40
2018-07-03T16:49:32.816Z,33.30
2018-07-03T16:52:01.402Z,33.00
2018-07-03T16:54:30.013Z,32.90
2018-07-03T16:56:58.663Z,32.80
2018-07-03T16:59:27.340Z,32.80
2018-07-03T17:01:56.017Z,32.70
2018-07-03T17:04:24.631Z,32.60
2018-07-03T17:06:53.573Z,32.40
2018-07-03T17:09:22.201Z,32.20
2018-07-03T17:11:50.828Z,32.00
2018-07-03T17:14:19.605Z,31.90
2018-07-03T17:16:48.529Z,31.80
2018-07-03T17:19:22.401Z,31.70
2018-07-03T17:21:52.529Z,31.50
2018-07-03T17:24:22.304Z,31.30
2018-07-03T17:26:51.359Z,31.00
2018-07-03T17:29:20.306Z,30.90
2018-07-03T17:31:49.191Z,30.80
2018-07-03T17:34:17.903Z,30.80
2018-07-03T17:36:46.890Z,30.70
2018-07-03T17:39:18.798Z,30.60
2018-07-03T17:41:59.996Z,30.50
2018-07-03T17:46:42.083Z,30.30
2018-07-03T17:49:11.291Z,30.20
2018-07-03T17:51:42.808Z,29.90
2018-07-03T17:54:11.725Z,29.80
2018-07-03T17:56:41.240Z,29.70
2018-07-03T17:59:10.189Z,29.60
2018-07-03T18:01:38.938Z,29.50
2018-07-03T18:04:07.799Z,29.40
2018-07-03T18:06:36.572Z,29.20
2018-07-03T18:09:08.794Z,29.00
2018-07-03T18:11:37.463Z,28.90
2018-07-03T18:14:07.110Z,28.80
2018-07-03T18:16:35.944Z,28.60
2018-07-03T18:19:10.036Z,28.50
2018-07-03T18:21:38.689Z,28.30
2018-07-03T18:24:07.344Z,28.30
2018-07-03T18:26:36.100Z,28.10
2018-07-03T18:29:05.161Z,28.00
2018-07-03T18:31:33.806Z,27.90
2018-07-03T18:34:02.429Z,27.80
2018-07-03T18:36:31.092Z,27.60
2018-07-03T18:38:59.721Z,27.60
2018-07-03T18:41:28.412Z,27.40
2018-07-03T18:43:57.029Z,27.30
2018-07-03T18:46:25.636Z,27.20
2018-07-03T18:48:54.299Z,27.10
2018-07-03T18:51:22.952Z,27.00
2018-07-03T18:53:51.629Z,26.90
2018-07-03T18:56:20.309Z,26.90
2018-07-03T18:58:48.946Z,26.80
2018-07-03T19:01:17.679Z,26.70
2018-07-03T19:03:46.518Z,26.60
2018-07-03T19:06:15.128Z,26.50
2018-07-03T19:08:43.751Z,26.40
2018-07-03T19:11:12.462Z,26.30
2018-07-03T19:13:41.190Z,26.20
2018-07-03T19:16:09.910Z,26.10
2018-07-03T19:18:38.627Z,26.10
2018-07-03T19:21:07.415Z,26.10
2018-07-03T19:23:36.029Z,26.00
2018-07-03T19:26:04.709Z,25.90
2018-07-03T19:28:33.389Z,25.80
2018-07-03T19:31:02.033Z,25.70
2018-07-03T19:33:30.662Z,25.50
2018-07-03T19:35:59.344Z,25.50
2018-07-03T19:38:27.928Z,25.40
2018-07-03T19:40:56.542Z,25.30
2018-07-03T19:43:27.612Z,25.20
2018-07-03T19:45:57.993Z,25.10
2018-07-03T19:48:26.847Z,25.00
2018-07-03T19:50:55.681Z,24.90
2018-07-03T19:53:24.396Z,24.80
2018-07-03T19:55:54.335Z,24.70
2018-07-03T19:58:23.202Z,24.60
2018-07-03T20:00:52.919Z,24.50
2018-07-03T20:03:21.695Z,24.50
2018-07-03T20:05:50.382Z,24.30
2018-07-03T20:08:19.150Z,24.30
2018-07-03T20:10:48.451Z,24.20
2018-07-03T20:13:18.074Z,24.10
2018-07-03T20:15:47.348Z,24.00
2018-07-03T20:18:16.615Z,23.90
2018-07-03T20:20:45.991Z,23.90
2018-07-03T20:23:14.650Z,23.80
2018-07-03T20:25:43.414Z,23.70
2018-07-03T20:28:13.675Z,23.60
2018-07-03T20:30:42.499Z,23.60
2018-07-03T20:33:11.205Z,23.50
2018-07-03T20:35:39.863Z,23.40
2018-07-03T20:38:08.575Z,23.40
2018-07-03T20:41:02.498Z,23.20
2018-07-03T20:43:32.488Z,23.20
2018-07-03T20:46:01.093Z,23.20
2018-07-03T20:48:30.673Z,23.10
2018-07-03T20:50:59.805Z,23.10
2018-07-03T20:53:28.434Z,23.00
2018-07-03T20:55:57.163Z,22.90
2018-07-03T20:58:26.709Z,22.90
2018-07-03T21:00:55.338Z,22.80
2018-07-03T21:03:24.041Z,22.80
2018-07-03T21:05:52.763Z,22.70
2018-07-03T21:08:21.300Z,22.70
2018-07-03T21:10:49.927Z,22.60
2018-07-03T21:13:18.651Z,22.60
2018-07-03T21:15:47.439Z,22.50
2018-07-03T21:18:16.031Z,22.50
2018-07-03T21:20:45.506Z,22.40
2018-07-03T21:23:14.892Z,22.40
2018-07-03T21:25:44.141Z,22.30
2018-07-03T21:28:12.762Z,22.20
2018-07-03T21:30:41.391Z,22.10
2018-07-03T21:33:09.996Z,22.00
2018-07-03T21:35:38.712Z,22.00
2018-07-03T21:38:07.622Z,21.90
2018-07-03T21:40:36.238Z,21.90
2018-07-03T21:43:04.828Z,21.90
2018-07-03T21:45:33.436Z,21.80
2018-07-03T21:48:02.077Z,21.80
2018-07-03T21:50:30.964Z,21.70
2018-07-03T21:52:59.552Z,21.70
2018-07-03T21:55:28.138Z,21.60
2018-07-03T21:57:56.776Z,21.60
2018-07-03T22:00:34.265Z,21.50
2018-07-03T22:03:03.477Z,21.50
2018-07-03T22:05:32.095Z,21.50
2018-07-03T22:08:00.711Z,21.40
2018-07-03T22:10:29.303Z,21.40
2018-07-03T22:12:57.934Z,21.40
2018-07-03T22:15:26.534Z,21.30
2018-07-03T22:17:55.257Z,21.30
2018-07-03T22:20:23.881Z,21.30
2018-07-03T22:22:52.695Z,21.20
2018-07-03T22:25:21.338Z,21.20
2018-07-03T22:27:50.138Z,21.10
2018-07-03T22:30:18.748Z,21.10
2018-07-03T22:32:47.365Z,21.00
2018-07-03T22:35:15.997Z,20.90
2018-07-03T22:37:44.614Z,20.90
2018-07-03T22:40:13.308Z,20.80
2018-07-03T22:42:41.965Z,20.80
2018-07-03T22:45:10.561Z,20.70
2018-07-03T22:47:39.160Z,20.70
2018-07-03T22:50:07.806Z,20.60
2018-07-03T22:52:36.415Z,20.60
2018-07-03T22:55:05.033Z,20.50
2018-07-03T22:57:33.656Z,20.50
2018-07-03T23:00:02.387Z,20.50
2018-07-03T23:02:30.983Z,20.50
2018-07-03T23:04:59.610Z,20.40
2018-07-03T23:07:28.254Z,20.30
2018-07-03T23:09:56.874Z,20.30
2018-07-03T23:12:25.576Z,20.20
2018-07-03T23:14:54.204Z,20.10
2018-07-03T23:17:22.811Z,20.10
2018-07-03T23:19:51.405Z,20.10
2018-07-03T23:22:19.999Z,20.00
2018-07-03T23:24:48.588Z,20.00
2018-07-03T23:27:17.250Z,20.00
2018-07-03T23:29:45.835Z,19.90
2018-07-03T23:32:14.477Z,19.80
2018-07-03T23:34:43.066Z,19.80
2018-07-03T23:37:11.670Z,19.70
2018-07-03T23:39:40.254Z,19.70
2018-07-03T23:42:08.847Z,19.60
2018-07-03T23:44:37.490Z,19.60
2018-07-03T23:47:17.211Z,19.50
2018-07-03T23:49:56.861Z,19.50
2018-07-03T23:52:37.561Z,19.40
2018-07-03T23:55:17.306Z,19.40
2018-07-03T23:57:56.975Z,19.30
